createdAt,value
2022-09-27T00:00:32.007Z,67.39
2022-09-27T00:03:00.201Z,67.88
2022-09-27T00:05:28.188Z,68.16
2022-09-27T00:07:56.155Z,68.80
2022-09-27T00:10:24.229Z,69.68
2022-09-27T00:12:54.117Z,69.51
2022-09-27T00:15:22.070Z,69.38
2022-09-27T00:17:51.914Z,69.30
2022-09-27T00:20:21.063Z,69.39
2022-09-27T00:22:49.931Z,69.11
2022-09-27T00:25:18.498Z,69.14
2022-09-27T00:27:46.606Z,69.43
2022-09-27T00:30:16.401Z,69.51
2022-09-27T00:32:44.371Z,69.75
2022-09-27T00:35:12.793Z,70.25
2022-09-27T00:37:40.802Z,70.25
2022-09-27T00:40:09.622Z,70.99
2022-09-27T00:42:37.707Z,71.47
2022-09-27T00:45:14.110Z,71.87
2022-09-27T00:47:48.789Z,72.02
2022-09-27T00:50:24.249Z,73.31
2022-09-27T00:53:01.242Z,73.76
2022-09-27T00:55:32.133Z,74.22
2022-09-27T00:58:00.125Z,74.51
2022-09-27T01:00:28.257Z,75.16
2022-09-27T01:02:58.278Z,75.48
2022-09-27T01:05:28.761Z,75.90
2022-09-27T01:08:00.586Z,76.30
2022-09-27T01:10:31.510Z,77.07
2022-09-27T01:13:05.692Z,76.56
2022-09-27T01:15:39.239Z,77.50
2022-09-27T01:18:18.937Z,77.14
2022-09-27T01:21:19.320Z,76.50
2022-09-27T01:23:58.091Z,76.46
2022-09-27T01:26:36.923Z,77.36
2022-09-27T01:29:10.821Z,76.58
2022-09-27T01:31:43.261Z,76.52
2022-09-27T01:34:19.158Z,76.86
2022-09-27T01:36:54.093Z,76.74
2022-09-27T01:39:31.498Z,77.02
2022-09-27T01:42:22.843Z,78.08
2022-09-27T01:45:00.010Z,77.97
2022-09-27T01:47:39.415Z,78.58
2022-09-27T01:50:40.448Z,77.84
2022-09-27T01:53:11.819Z,77.58
2022-09-27T01:55:56.809Z,78.08
2022-09-27T01:58:51.684Z,78.25
2022-09-27T02:01:21.794Z,78.40
2022-09-27T02:03:53.389Z,78.24
2022-09-27T02:06:52.964Z,78.42
2022-09-27T02:09:29.870Z,78.61
2022-09-27T02:12:21.882Z,78.12
2022-09-27T02:14:54.853Z,78.35
2022-09-27T02:17:29.933Z,78.78
2022-09-27T02:20:04.997Z,79.27
2022-09-27T02:22:43.928Z,78.64
2022-09-27T02:25:15.846Z,79.27
2022-09-27T02:27:52.452Z,79.67
2022-09-27T02:30:21.744Z,80.63
2022-09-27T02:32:56.031Z,81.01
2022-09-27T02:35:29.644Z,81.55
2022-09-27T02:37:57.720Z,81.08
2022-09-27T02:40:27.168Z,81.79
2022-09-27T02:42:55.155Z,82.31
2022-09-27T02:45:24.300Z,82.38
2022-09-27T02:48:03.681Z,82.34
2022-09-27T02:50:55.256Z,83.00
2022-09-27T02:53:56.071Z,83.01
2022-09-27T02:56:50.648Z,82.82
2022-09-27T02:59:45.537Z,82.69
2022-09-27T03:02:35.575Z,82.51
2022-09-27T03:05:25.517Z,81.86
2022-09-27T03:07:54.824Z,82.38
2022-09-27T03:10:25.025Z,83.06
2022-09-27T03:12:53.463Z,82.79
2022-09-27T03:15:21.831Z,83.01
2022-09-27T03:18:01.932Z,84.13
2022-09-27T03:20:58.650Z,83.87
2022-09-27T03:23:28.416Z,83.54
2022-09-27T03:25:56.549Z,84.92
2022-09-27T03:28:25.147Z,84.96
2022-09-27T03:30:53.645Z,84.76
2022-09-27T03:33:41.981Z,84.13
2022-09-27T03:36:12.585Z,84.25
2022-09-27T03:38:42.135Z,85.29
2022-09-27T03:41:13.211Z,85.22
2022-09-27T03:43:41.371Z,85.09
2022-09-27T03:46:09.414Z,84.81
2022-09-27T03:48:37.478Z,85.94
2022-09-27T03:51:05.612Z,85.14
2022-09-27T03:53:33.586Z,85.50
2022-09-27T03:56:03.367Z,85.72
2022-09-27T03:58:32.228Z,85.29
2022-09-27T04:01:00.460Z,86.05
2022-09-27T04:03:29.023Z,85.20
2022-09-27T04:06:16.036Z,85.40
2022-09-27T04:08:45.993Z,85.52
2022-09-27T04:11:15.532Z,85.14
2022-09-27T04:13:47.437Z,85.34
2022-09-27T04:16:16.196Z,85.37
2022-09-27T04:19:09.525Z,85.82
2022-09-27T04:21:49.804Z,85.38
2022-09-27T04:24:19.345Z,85.20
2022-09-27T04:27:11.174Z,84.99
2022-09-27T04:29:43.192Z,84.97
2022-09-27T04:32:27.140Z,85.38
2022-09-27T04:35:33.445Z,85.85
2022-09-27T04:38:01.784Z,85.59
2022-09-27T04:40:30.248Z,86.01
2022-09-27T04:42:59.858Z,85.84
2022-09-27T04:45:27.823Z,85.36
2022-09-27T04:47:56.047Z,86.66
2022-09-27T04:50:24.187Z,86.02
2022-09-27T04:53:03.209Z,86.42
2022-09-27T04:55:31.246Z,85.43
2022-09-27T04:58:01.714Z,85.02
2022-09-27T05:00:30.388Z,85.50
2022-09-27T05:03:05.359Z,85.41
2022-09-27T05:05:43.311Z,85.49
2022-09-27T05:08:11.805Z,85.20
2022-09-27T05:11:02.855Z,84.84
2022-09-27T05:13:32.243Z,85.93
2022-09-27T05:16:04.092Z,85.30
2022-09-27T05:18:50.618Z,85.57
2022-09-27T05:21:37.144Z,85.95
2022-09-27T05:24:05.781Z,84.99
2022-09-27T05:26:33.782Z,85.03
2022-09-27T05:29:03.315Z,85.90
2022-09-27T05:31:31.336Z,84.86
2022-09-27T05:33:59.433Z,84.75
2022-09-27T05:36:37.627Z,85.71
2022-09-27T05:39:07.057Z,85.36
2022-09-27T05:41:35.576Z,85.18
2022-09-27T05:44:05.968Z,84.59
2022-09-27T05:46:34.970Z,84.21
2022-09-27T05:49:02.989Z,85.09
2022-09-27T05:51:30.959Z,84.79
2022-09-27T05:53:59.290Z,84.79
2022-09-27T05:56:29.752Z,85.26
2022-09-27T05:59:11.302Z,84.39
2022-09-27T06:01:59.441Z,84.17
2022-09-27T06:04:46.343Z,83.67
2022-09-27T06:07:33.133Z,83.76
2022-09-27T06:10:03.119Z,84.39
2022-09-27T06:12:31.994Z,84.59
2022-09-27T06:15:02.722Z,84.34
2022-09-27T06:17:37.658Z,84.30
2022-09-27T06:20:13.665Z,83.95
2022-09-27T06:22:42.139Z,83.94
2022-09-27T06:25:11.124Z,84.98
2022-09-27T06:27:50.905Z,84.34
2022-09-27T06:30:27.159Z,82.46
2022-09-27T06:32:59.344Z,83.21
2022-09-27T06:35:47.513Z,83.76
2022-09-27T06:38:17.893Z,83.28
2022-09-27T06:40:53.130Z,83.10
2022-09-27T06:43:33.055Z,81.65
2022-09-27T06:46:07.993Z,82.23
2022-09-27T06:48:57.671Z,81.64
2022-09-27T06:51:26.064Z,81.54
2022-09-27T06:53:54.772Z,81.29
2022-09-27T06:56:22.776Z,82.36
2022-09-27T06:59:12.845Z,82.20
2022-09-27T07:01:45.402Z,80.79
2022-09-27T07:04:34.971Z,81.23
2022-09-27T07:07:11.913Z,80.46
2022-09-27T07:09:42.631Z,81.47
2022-09-27T07:12:13.429Z,80.85
2022-09-27T07:14:42.467Z,80.75
2022-09-27T07:17:15.872Z,81.52
2022-09-27T07:19:46.313Z,82.25
2022-09-27T07:22:14.741Z,82.03
2022-09-27T07:24:45.625Z,82.68
2022-09-27T07:27:15.137Z,82.83
2022-09-27T07:29:43.204Z,83.59
2022-09-27T07:32:11.137Z,82.57
2022-09-27T07:34:41.291Z,82.61
2022-09-27T07:37:09.635Z,83.11
2022-09-27T07:39:40.899Z,83.15
2022-09-27T07:42:08.868Z,82.72
2022-09-27T07:44:42.226Z,81.74
2022-09-27T07:47:24.641Z,80.34
2022-09-27T07:50:23.081Z,81.27
2022-09-27T07:52:59.959Z,80.46
2022-09-27T07:55:54.548Z,78.58
2022-09-27T07:58:25.695Z,78.80
2022-09-27T08:00:57.138Z,76.79
2022-09-27T08:03:25.343Z,76.33
2022-09-27T08:05:55.709Z,76.46
2022-09-27T08:08:24.249Z,74.39
2022-09-27T08:10:53.921Z,74.00
2022-09-27T08:13:21.970Z,74.00
2022-09-27T08:15:53.292Z,73.57
2022-09-27T08:18:24.727Z,74.35
2022-09-27T08:21:02.241Z,74.28
2022-09-27T08:23:43.008Z,74.38
2022-09-27T08:26:34.462Z,73.99
2022-09-27T08:29:14.706Z,72.46
2022-09-27T08:31:51.787Z,71.45
2022-09-27T08:34:20.494Z,72.74
2022-09-27T08:36:49.892Z,72.77
2022-09-27T08:39:17.949Z,73.32
2022-09-27T08:41:53.903Z,72.94
2022-09-27T08:44:29.343Z,72.37
2022-09-27T08:47:08.179Z,73.31
2022-09-27T08:49:40.076Z,72.97
2022-09-27T08:52:15.313Z,72.95
2022-09-27T08:54:44.076Z,71.56
2022-09-27T08:57:13.298Z,72.62
2022-09-27T08:59:44.288Z,71.99
2022-09-27T09:02:19.047Z,72.96
2022-09-27T09:04:51.948Z,71.49
2022-09-27T09:07:39.722Z,72.00
2022-09-27T09:10:41.413Z,70.83
2022-09-27T09:13:14.594Z,71.52
2022-09-27T09:15:56.288Z,71.66
2022-09-27T09:18:35.977Z,71.02
2022-09-27T09:21:24.288Z,72.00
2022-09-27T09:24:14.641Z,70.09
2022-09-27T09:26:46.840Z,70.30
2022-09-27T09:29:25.650Z,70.41
2022-09-27T09:31:59.611Z,71.09
2022-09-27T09:34:30.563Z,69.81
2022-09-27T09:37:00.624Z,71.00
2022-09-27T09:39:35.104Z,70.09
2022-09-27T09:42:11.705Z,70.39
2022-09-27T09:44:47.408Z,70.50
2022-09-27T09:47:21.363Z,69.74
2022-09-27T09:49:53.632Z,70.84
2022-09-27T09:52:23.814Z,70.39
2022-09-27T09:54:57.425Z,70.03
2022-09-27T09:57:30.229Z,68.57
2022-09-27T10:00:00.806Z,69.75
2022-09-27T10:02:32.737Z,69.27
2022-09-27T10:05:31.500Z,67.68
2022-09-27T10:08:05.748Z,68.11
2022-09-27T10:10:35.385Z,66.42
2022-09-27T10:13:26.214Z,65.65
2022-09-27T10:16:03.398Z,66.37
2022-09-27T10:18:33.501Z,66.49
2022-09-27T10:21:04.131Z,65.85
2022-09-27T10:23:32.139Z,66.50
2022-09-27T10:26:21.586Z,65.86
2022-09-27T10:28:52.177Z,67.05
2022-09-27T10:31:36.472Z,66.13
2022-09-27T10:34:20.243Z,66.76
2022-09-27T10:37:05.229Z,65.65
2022-09-27T10:39:35.512Z,67.06
2022-09-27T10:42:21.281Z,67.27
2022-09-27T10:44:50.257Z,67.00
2022-09-27T10:47:27.487Z,67.45
2022-09-27T10:50:38.605Z,66.51
2022-09-27T10:53:18.874Z,66.74
2022-09-27T10:55:53.915Z,67.62
2022-09-27T10:58:28.792Z,67.12
2022-09-27T11:00:58.506Z,65.58
2022-09-27T11:03:29.076Z,65.31
2022-09-27T11:05:59.423Z,66.67
2022-09-27T11:08:32.525Z,65.87
2022-09-27T11:11:13.768Z,65.67
2022-09-27T11:13:59.028Z,68.01
2022-09-27T11:16:46.235Z,67.61
2022-09-27T11:19:33.083Z,63.77
2022-09-27T11:22:04.063Z,65.30
2022-09-27T11:24:43.304Z,68.59
2022-09-27T11:27:22.302Z,66.07
2022-09-27T11:30:03.722Z,64.97
2022-09-27T11:33:18.879Z,62.72
2022-09-27T11:35:57.169Z,64.50
2022-09-27T11:38:51.210Z,64.75
2022-09-27T11:41:28.873Z,65.29
2022-09-27T11:44:09.167Z,63.24
2022-09-27T11:46:42.099Z,63.20
2022-09-27T11:49:32.405Z,61.30
2022-09-27T11:52:25.448Z,61.02
2022-09-27T11:55:10.723Z,60.82
2022-09-27T11:57:43.684Z,61.39
2022-09-27T12:00:17.822Z,58.90
2022-09-27T12:03:10.574Z,60.31
2022-09-27T12:05:57.826Z,60.16
2022-09-27T12:08:34.748Z,61.10
2022-09-27T12:11:06.525Z,58.83
2022-09-27T12:13:39.063Z,59.34
2022-09-27T12:16:07.740Z,60.69
2022-09-27T12:18:40.467Z,61.71
2022-09-27T12:21:23.108Z,60.20
2022-09-27T12:23:53.176Z,58.39
2022-09-27T12:26:37.700Z,63.28
2022-09-27T12:29:13.970Z,66.89
2022-09-27T12:31:45.626Z,70.34
2022-09-27T12:34:20.129Z,74.13
2022-09-27T12:36:52.860Z,73.67
2022-09-27T12:39:25.261Z,75.59
2022-09-27T12:42:03.135Z,78.48
2022-09-27T12:44:44.941Z,77.52
2022-09-27T12:47:35.644Z,76.61
2022-09-27T12:50:11.355Z,73.26
2022-09-27T12:52:43.025Z,73.46
2022-09-27T12:55:35.386Z,71.71
2022-09-27T12:58:37.672Z,74.13
2022-09-27T13:01:13.738Z,73.06
2022-09-27T13:04:03.496Z,71.46
2022-09-27T13:06:47.326Z,71.71
2022-09-27T13:09:46.304Z,70.68
2022-09-27T13:12:16.258Z,69.97
2022-09-27T13:14:58.656Z,70.91
2022-09-27T13:17:53.250Z,69.87
2022-09-27T13:20:48.247Z,69.97
2022-09-27T13:24:02.113Z,68.68
2022-09-27T13:27:42.871Z,70.44
2022-09-27T13:30:50.205Z,68.27
2022-09-27T13:33:43.231Z,68.00
2022-09-27T13:36:37.749Z,64.74
2022-09-27T13:39:23.065Z,63.34
2022-09-27T13:42:30.118Z,64.47
2022-09-27T13:45:16.015Z,64.19
2022-09-27T13:47:47.437Z,65.44
2022-09-27T13:50:26.643Z,65.36
2022-09-27T13:53:08.376Z,65.48
2022-09-27T13:55:46.797Z,64.42
2022-09-27T13:58:35.246Z,63.22
2022-09-27T14:01:13.278Z,65.25
2022-09-27T14:03:43.945Z,63.96
2022-09-27T14:06:15.306Z,63.31
2022-09-27T14:08:47.354Z,63.07
2022-09-27T14:11:19.173Z,63.48
2022-09-27T14:13:48.554Z,64.47
2022-09-27T14:16:20.850Z,64.23
2022-09-27T14:18:53.892Z,62.78
2022-09-27T14:21:32.288Z,63.07
2022-09-27T14:24:29.621Z,64.45
2022-09-27T14:27:10.548Z,63.17
2022-09-27T14:29:42.206Z,64.80
2022-09-27T14:32:13.174Z,64.76
2022-09-27T14:35:31.715Z,63.91
2022-09-27T14:38:07.480Z,64.30
2022-09-27T14:40:45.774Z,64.13
2022-09-27T14:43:18.301Z,64.69
2022-09-27T14:45:48.801Z,64.52
2022-09-27T14:48:22.291Z,64.86
2022-09-27T14:51:04.950Z,65.50
2022-09-27T14:53:35.588Z,65.28
2022-09-27T14:56:08.062Z,64.28
2022-09-27T14:58:47.276Z,65.92
2022-09-27T15:01:16.870Z,67.30
2022-09-27T15:03:46.471Z,67.54
2022-09-27T15:06:17.342Z,66.93
2022-09-27T15:08:49.287Z,68.58
2022-09-27T15:11:17.981Z,67.05
2022-09-27T15:13:50.637Z,66.06
2022-09-27T15:16:20.210Z,67.13
2022-09-27T15:18:49.533Z,67.46
2022-09-27T15:21:29.712Z,65.29
2022-09-27T15:23:58.837Z,67.34
2022-09-27T15:26:29.961Z,67.99
2022-09-27T15:28:59.343Z,69.84
2022-09-27T15:31:30.477Z,71.80
2022-09-27T15:33:59.303Z,73.65
2022-09-27T15:36:53.071Z,73.45
2022-09-27T15:39:22.390Z,73.33
2022-09-27T15:42:08.890Z,73.48
2022-09-27T15:44:45.261Z,73.95
2022-09-27T15:47:48.746Z,72.37
2022-09-27T15:50:36.154Z,72.10
2022-09-27T15:53:06.674Z,72.72
2022-09-27T15:55:37.731Z,73.33
2022-09-27T15:58:08.299Z,72.90
2022-09-27T16:00:37.755Z,74.43
2022-09-27T16:03:05.736Z,74.73
2022-09-27T16:05:33.786Z,76.50
2022-09-27T16:08:02.262Z,77.76
2022-09-27T16:10:33.325Z,79.40
2022-09-27T16:13:01.268Z,80.23
2022-09-27T16:15:29.246Z,81.37
2022-09-27T16:17:58.791Z,82.29
2022-09-27T16:20:28.166Z,82.56
2022-09-27T16:22:56.671Z,83.76
2022-09-27T16:25:24.849Z,83.26
2022-09-27T16:27:53.696Z,82.65
2022-09-27T16:30:21.669Z,81.66
2022-09-27T16:32:50.133Z,81.85
2022-09-27T16:35:20.984Z,80.38
2022-09-27T16:37:48.968Z,80.95
2022-09-27T16:40:17.998Z,81.22
2022-09-27T16:42:46.575Z,81.32
2022-09-27T16:45:19.150Z,80.56
2022-09-27T16:47:48.770Z,80.47
2022-09-27T16:50:34.516Z,80.38
2022-09-27T16:53:05.251Z,79.76
2022-09-27T16:55:33.241Z,79.77
2022-09-27T16:58:03.739Z,79.78
2022-09-27T17:00:33.279Z,78.91
2022-09-27T17:03:01.442Z,79.01
2022-09-27T17:05:29.561Z,79.88
2022-09-27T17:07:57.903Z,79.92
2022-09-27T17:10:27.444Z,80.22
2022-09-27T17:12:57.186Z,81.16
2022-09-27T17:15:25.192Z,81.19
2022-09-27T17:17:53.271Z,81.66
2022-09-27T17:20:21.211Z,81.63
2022-09-27T17:22:49.257Z,82.00
2022-09-27T17:25:17.412Z,82.69
2022-09-27T17:27:46.759Z,82.10
2022-09-27T17:30:14.824Z,82.17
2022-09-27T17:32:42.774Z,81.19
2022-09-27T17:35:10.860Z,80.89
2022-09-27T17:37:38.871Z,80.39
2022-09-27T17:40:07.644Z,81.57
2022-09-27T17:42:37.267Z,81.50
2022-09-27T17:45:07.693Z,81.04
2022-09-27T17:47:53.354Z,81.15
2022-09-27T17:50:28.743Z,81.75
2022-09-27T17:52:58.855Z,81.42
2022-09-27T17:55:27.603Z,80.28
2022-09-27T17:57:55.626Z,79.73
2022-09-27T18:00:25.011Z,80.11
2022-09-27T18:02:53.068Z,79.80
2022-09-27T18:05:21.748Z,80.72
2022-09-27T18:07:50.204Z,80.39
2022-09-27T18:10:18.712Z,81.45
2022-09-27T18:12:46.692Z,80.85
2022-09-27T18:15:20.301Z,80.68
2022-09-27T18:17:57.787Z,80.45
2022-09-27T18:20:26.221Z,80.22
2022-09-27T18:22:54.591Z,80.45
2022-09-27T18:25:25.142Z,81.02
2022-09-27T18:27:55.889Z,81.19
2022-09-27T18:30:24.093Z,81.62
2022-09-27T18:32:53.795Z,81.25
2022-09-27T18:35:23.855Z,80.94
2022-09-27T18:37:51.900Z,81.57
2022-09-27T18:40:38.019Z,80.39
2022-09-27T18:43:08.326Z,80.09
2022-09-27T18:45:37.133Z,81.26
2022-09-27T18:48:06.872Z,82.49
2022-09-27T18:50:38.569Z,82.83
2022-09-27T18:53:08.328Z,82.46
2022-09-27T18:55:38.380Z,82.98
2022-09-27T18:58:06.410Z,83.20
2022-09-27T19:00:34.509Z,82.49
2022-09-27T19:03:02.468Z,83.04
2022-09-27T19:05:31.871Z,83.02
2022-09-27T19:08:00.024Z,82.62
2022-09-27T19:10:28.077Z,83.28
2022-09-27T19:12:57.187Z,83.08
2022-09-27T19:15:25.596Z,83.41
2022-09-27T19:17:53.623Z,83.00
2022-09-27T19:20:21.647Z,82.73
2022-09-27T19:22:51.080Z,82.90
2022-09-27T19:25:19.028Z,82.46
2022-09-27T19:27:47.055Z,83.53
2022-09-27T19:30:15.368Z,82.91
2022-09-27T19:32:43.414Z,82.89
2022-09-27T19:35:12.429Z,82.86
2022-09-27T19:37:40.441Z,82.57
2022-09-27T19:40:10.398Z,83.15
2022-09-27T19:42:38.525Z,82.59
2022-09-27T19:45:11.443Z,83.22
2022-09-27T19:47:39.916Z,83.03
2022-09-27T19:50:09.067Z,83.30
2022-09-27T19:52:37.292Z,83.02
2022-09-27T19:55:06.708Z,82.74
2022-09-27T19:57:36.102Z,82.79
2022-09-27T20:00:04.998Z,82.92
2022-09-27T20:02:33.547Z,82.86
2022-09-27T20:05:01.873Z,82.48
2022-09-27T20:07:30.678Z,82.59
2022-09-27T20:09:58.636Z,83.40
2022-09-27T20:12:27.724Z,83.12
2022-09-27T20:14:57.016Z,83.96
2022-09-27T20:17:24.982Z,83.99
2022-09-27T20:19:52.906Z,83.59
2022-09-27T20:22:20.862Z,83.13
2022-09-27T20:24:48.799Z,83.56
2022-09-27T20:27:16.808Z,84.81
2022-09-27T20:29:44.858Z,84.62
2022-09-27T20:32:27.242Z,84.27
2022-09-27T20:34:55.984Z,84.46
2022-09-27T20:37:23.953Z,84.97
2022-09-27T20:39:53.556Z,84.57
2022-09-27T20:42:21.563Z,84.78
2022-09-27T20:44:53.925Z,85.09
2022-09-27T20:47:23.825Z,85.17
2022-09-27T20:49:51.799Z,84.36
2022-09-27T20:52:19.739Z,84.89
2022-09-27T20:54:47.781Z,84.53
2022-09-27T20:57:15.963Z,85.06
2022-09-27T20:59:43.947Z,84.99
2022-09-27T21:02:12.021Z,83.85
2022-09-27T21:04:41.419Z,84.33
2022-09-27T21:07:09.381Z,84.95
2022-09-27T21:09:38.675Z,85.88
2022-09-27T21:12:06.679Z,85.86
2022-09-27T21:14:34.696Z,85.52
2022-09-27T21:17:02.642Z,85.41
2022-09-27T21:19:30.717Z,85.76
2022-09-27T21:22:00.117Z,86.60
2022-09-27T21:24:28.162Z,88.48
2022-09-27T21:26:57.688Z,88.16
2022-09-27T21:29:25.668Z,88.00
2022-09-27T21:31:53.770Z,85.95
2022-09-27T21:34:21.841Z,86.01
2022-09-27T21:36:50.145Z,85.45
2022-09-27T21:39:19.614Z,85.78
2022-09-27T21:41:47.572Z,86.31
2022-09-27T21:44:15.772Z,85.67
2022-09-27T21:46:43.894Z,86.21
2022-09-27T21:49:11.971Z,86.50
2022-09-27T21:51:41.187Z,86.00
2022-09-27T21:54:11.149Z,86.19
2022-09-27T21:56:41.127Z,86.77
2022-09-27T21:59:12.043Z,86.83
2022-09-27T22:01:40.123Z,86.90
2022-09-27T22:04:08.252Z,85.83
2022-09-27T22:06:37.775Z,86.99
2022-09-27T22:09:07.995Z,86.73
2022-09-27T22:11:38.588Z,85.98
2022-09-27T22:14:07.957Z,86.79
2022-09-27T22:16:36.335Z,86.15
2022-09-27T22:19:04.909Z,86.36
2022-09-27T22:21:34.977Z,86.82
2022-09-27T22:24:07.749Z,86.37
2022-09-27T22:26:37.782Z,86.29
2022-09-27T22:29:06.271Z,86.35
2022-09-27T22:31:36.258Z,86.21
2022-09-27T22:34:06.006Z,86.15
2022-09-27T22:36:35.078Z,86.42
2022-09-27T22:39:03.387Z,86.30
2022-09-27T22:41:32.185Z,86.71
2022-09-27T22:44:01.203Z,87.10
2022-09-27T22:46:29.356Z,86.37
2022-09-27T22:48:58.740Z,86.30
2022-09-27T22:51:27.100Z,86.67
2022-09-27T22:53:55.068Z,85.55
2022-09-27T22:56:23.039Z,86.15
2022-09-27T22:58:51.445Z,85.21
2022-09-27T23:01:20.942Z,85.28
2022-09-27T23:03:50.107Z,85.66
2022-09-27T23:06:20.840Z,85.79
2022-09-27T23:08:49.578Z,85.10
2022-09-27T23:11:19.768Z,85.31
2022-09-27T23:13:49.093Z,86.14
2022-09-27T23:16:20.089Z,86.32
2022-09-27T23:18:48.685Z,86.49
2022-09-27T23:21:17.244Z,85.87
2022-09-27T23:23:47.377Z,86.50
2022-09-27T23:26:17.331Z,85.86
2022-09-27T23:28:45.650Z,86.51
2022-09-27T23:31:15.068Z,86.34
2022-09-27T23:33:44.954Z,86.44
2022-09-27T23:36:38.080Z,86.59
2022-09-27T23:39:07.503Z,86.07
2022-09-27T23:41:35.444Z,85.88
2022-09-27T23:44:03.358Z,85.47
2022-09-27T23:46:31.724Z,85.62
2022-09-27T23:48:59.785Z,85.90
2022-09-27T23:51:27.716Z,86.16
2022-09-27T23:53:57.699Z,84.73
2022-09-27T23:56:27.270Z,85.47
2022-09-27T23:58:55.288Z,84.87
